Time;durP1;ratioP1;P1;durP2;ratioP2;P2;SDS_P1;SDS_P2;PMS_P1;PMS_P2;Temp;Humidity;BMP_temperature;BMP_pressure;BME280_temperature;BME280_humidity;BME280_pressure;Samples;Min_cycle;Max_cycle;Signal;HPM_P1;HPM_P2
2022/10/30 00:00:14;;;;;;;16.13;4.05;;;;;;;18.33;55.87;97088.28;4771826;30;20063;-77
2022/10/30 00:02:41;;;;;;;8.32;3.08;;;;;;;18.32;56.34;97084.84;4771640;30;20067;-78
2022/10/30 00:05:09;;;;;;;15.00;4.53;;;;;;;18.31;55.93;97080.56;4771397;30;20475;-78
2022/10/30 00:07:37;;;;;;;12.50;3.80;;;;;;;18.28;55.93;97080.22;4771861;30;20048;-78
2022/10/30 00:10:05;;;;;;;10.25;4.13;;;;;;;18.24;56.12;97092.22;4771236;30;20067;-77
2022/10/30 00:12:33;;;;;;;15.15;4.30;;;;;;;18.19;56.07;97082.34;4771420;30;20067;-77
2022/10/30 00:15:00;;;;;;;9.38;3.85;;;;;;;18.15;56.17;97083.78;4771220;30;20499;-77
2022/10/30 00:17:29;;;;;;;10.48;3.35;;;;;;;18.10;56.22;97086.25;4771233;30;20051;-77
2022/10/30 00:19:57;;;;;;;17.35;4.78;;;;;;;18.07;56.20;97087.50;4770955;30;20075;-77
2022/10/30 00:22:24;;;;;;;11.02;4.10;;;;;;;18.05;56.21;97086.09;4771475;30;20063;-78
2022/10/30 00:24:52;;;;;;;12.32;4.40;;;;;;;18.02;56.41;97091.84;4771412;30;20060;-77
2022/10/30 00:27:20;;;;;;;12.90;4.40;;;;;;;17.99;56.27;97098.31;4771301;30;20056;-78
2022/10/30 00:29:47;;;;;;;13.82;3.75;;;;;;;17.96;56.36;97093.50;4770753;30;20265;-77
2022/10/30 00:32:15;;;;;;;13.15;4.43;;;;;;;17.95;56.70;97096.34;4770956;30;20052;-77
2022/10/30 00:34:44;;;;;;;8.25;3.55;;;;;;;17.94;57.35;97094.75;4770939;30;20051;-77
2022/10/30 00:37:11;;;;;;;11.10;4.35;;;;;;;17.90;57.13;97095.16;4771395;30;20298;-78
2022/10/30 00:39:39;;;;;;;9.93;3.25;;;;;;;17.85;57.07;97086.28;4770741;30;20078;-78
2022/10/30 00:42:11;;;;;;;11.13;3.75;;;;;;;17.82;57.31;97091.97;4770948;30;20437;-77
2022/10/30 00:44:44;;;;;;;14.95;4.30;;;;;;;17.80;57.35;97097.47;4770764;30;20438;-77
2022/10/30 00:47:16;;;;;;;14.25;4.38;;;;;;;17.77;57.36;97083.88;4770873;30;20211;-77
2022/10/30 00:49:51;;;;;;;11.35;4.07;;;;;;;17.75;58.47;97086.72;4770589;30;20140;-76
2022/10/30 00:52:23;;;;;;;18.00;4.68;;;;;;;17.71;57.90;97081.09;4770442;30;20051;-78
2022/10/30 00:54:52;;;;;;;13.57;4.25;;;;;;;17.69;57.74;97077.06;4770548;30;20056;-77
2022/10/30 00:57:20;;;;;;;10.90;3.70;;;;;;;17.67;57.90;97073.81;4770349;30;20066;-77
2022/10/30 00:59:48;;;;;;;9.43;4.22;;;;;;;17.63;57.55;97065.50;4769941;30;20060;-77
2022/10/30 01:02:18;;;;;;;14.70;3.95;;;;;;;17.58;58.03;97070.63;4770366;30;20457;-77
2022/10/30 01:04:50;;;;;;;8.57;3.85;;;;;;;17.57;57.65;97066.38;4770342;30;20099;-77
2022/10/30 01:07:17;;;;;;;9.98;3.30;;;;;;;17.57;57.24;97063.72;4770369;30;20051;-77
2022/10/30 01:09:46;;;;;;;9.18;3.22;;;;;;;17.57;57.29;97058.47;4769884;30;20439;-77
2022/10/30 01:12:14;;;;;;;14.48;3.60;;;;;;;17.55;57.13;97070.25;4773971;30;20056;-77
2022/10/30 01:14:45;;;;;;;12.32;3.70;;;;;;;17.50;57.51;97063.78;4776247;30;20546;-77
2022/10/30 01:17:38;;;;;;;9.13;3.58;;;;;;;17.48;58.33;97065.81;4774536;30;20058;-77
2022/10/30 01:20:23;;;;;;;13.48;4.93;;;;;;;17.46;58.54;97069.69;4770358;30;20059;-77
2022/10/30 01:23:00;;;;;;;12.02;4.45;;;;;;;17.39;58.72;97066.31;4770754;30;20072;-76
2022/10/30 01:25:42;;;;;;;9.75;4.22;;;;;;;17.28;59.00;97059.88;4770236;30;20059;-77
2022/10/30 01:28:26;;;;;;;12.32;4.97;;;;;;;17.20;59.58;97058.31;4769965;30;20151;-77
2022/10/30 01:31:04;;;;;;;13.20;4.78;;;;;;;17.15;59.79;97058.13;4769809;30;20060;-77
2022/10/30 01:33:41;;;;;;;16.73;5.03;;;;;;;17.10;59.91;97052.72;4770210;30;20070;-78
2022/10/30 01:36:18;;;;;;;15.10;5.57;;;;;;;17.03;60.17;97062.47;4769988;30;20062;-77
2022/10/30 01:38:50;;;;;;;9.93;4.85;;;;;;;16.99;60.23;97053.34;4770038;30;20052;-77
2022/10/30 01:41:18;;;;;;;11.68;4.68;;;;;;;16.96;60.10;97051.16;4769321;30;20059;-77
2022/10/30 01:43:48;;;;;;;7.55;4.53;;;;;;;16.92;60.38;97060.50;4769693;30;20060;-77
2022/10/30 01:46:38;;;;;;;13.45;5.25;;;;;;;16.86;60.64;97062.97;4769885;30;20139;-77
2022/10/30 01:49:25;;;;;;;9.75;4.03;;;;;;;16.85;61.17;97058.69;4769415;30;20055;-77
2022/10/30 01:52:04;;;;;;;13.13;4.85;;;;;;;16.81;60.82;97054.84;4769772;30;20063;-77
2022/10/30 01:54:41;;;;;;;11.13;4.50;;;;;;;16.78;61.09;97057.91;4769765;30;20432;-77
2022/10/30 01:57:21;;;;;;;17.35;4.13;;;;;;;16.71;60.40;97056.31;4769528;30;20086;-77
2022/10/30 01:59:54;;;;;;;11.18;3.75;;;;;;;16.65;60.75;97050.06;4782880;30;20067;-77
2022/10/30 02:02:22;;;;;;;12.15;3.90;;;;;;;16.63;60.29;97052.09;4780286;30;20142;-77
2022/10/30 02:04:50;;;;;;;12.10;4.63;;;;;;;16.60;60.02;97053.31;4770883;30;20052;-77
2022/10/30 02:07:20;;;;;;;8.60;4.22;;;;;;;16.54;60.04;97056.78;4769778;30;20058;-77
2022/10/30 02:09:48;;;;;;;12.45;3.90;;;;;;;16.48;60.15;97055.78;4769364;30;20063;-77
2022/10/30 02:12:16;;;;;;;15.45;3.97;;;;;;;16.42;60.26;97043.47;4769435;30;20059;-76
2022/10/30 02:14:47;;;;;;;10.02;3.33;;;;;;;16.38;60.43;97050.16;4769668;30;20055;-77
2022/10/30 02:17:15;;;;;;;12.57;4.03;;;;;;;16.34;60.60;97048.94;4769683;30;20060;-77
2022/10/30 02:19:43;;;;;;;12.32;3.78;;;;;;;16.26;60.43;97047.34;4769343;30;20056;-78
2022/10/30 02:22:12;;;;;;;12.80;4.43;;;;;;;16.19;61.04;97046.56;4769492;30;20056;-77
2022/10/30 02:24:40;;;;;;;15.75;3.72;;;;;;;16.15;60.96;97045.34;4769403;30;20064;-77
2022/10/30 02:27:07;;;;;;;9.27;3.28;;;;;;;16.15;61.08;97044.53;4769602;30;20071;-77
2022/10/30 02:29:35;;;;;;;13.57;2.97;;;;;;;16.18;61.22;97038.84;4769438;30;20056;-77
2022/10/30 02:32:03;;;;;;;12.15;3.65;;;;;;;16.20;61.04;97042.91;4769537;30;20055;-77
2022/10/30 02:34:30;;;;;;;7.43;3.30;;;;;;;16.18;61.04;97044.13;4769194;30;20068;-77
2022/10/30 02:36:58;;;;;;;14.07;3.55;;;;;;;16.14;61.17;97042.94;4769153;30;20048;-77
2022/10/30 02:39:27;;;;;;;10.82;3.33;;;;;;;16.09;61.38;97051.41;4768876;30;20060;-77
2022/10/30 02:41:54;;;;;;;10.57;3.15;;;;;;;16.07;61.26;97037.69;4770093;30;20055;-79
2022/10/30 02:44:22;;;;;;;11.73;3.30;;;;;;;16.06;61.54;97036.84;4770261;30;20083;-78
2022/10/30 02:46:50;;;;;;;15.13;3.17;;;;;;;16.08;60.80;97039.28;4770086;30;20138;-79
2022/10/30 02:49:18;;;;;;;9.20;3.45;;;;;;;16.05;60.59;97043.16;4770185;30;20123;-79
2022/10/30 02:51:46;;;;;;;12.85;4.15;;;;;;;16.05;60.64;97045.78;4770042;30;20062;-79
2022/10/30 02:54:14;;;;;;;11.35;3.22;;;;;;;16.03;60.77;97037.28;4773775;30;20083;-79
2022/10/30 02:56:43;;;;;;;11.32;3.75;;;;;;;16.03;61.04;97034.66;4773803;30;20056;-79
2022/10/30 02:59:11;;;;;;;14.13;3.65;;;;;;;16.02;60.86;97029.59;4773070;30;20051;-79
2022/10/30 03:01:39;;;;;;;9.57;3.50;;;;;;;15.99;60.83;97037.91;4773059;30;20060;-79
2022/10/30 03:04:08;;;;;;;10.48;3.53;;;;;;;15.94;60.97;97038.50;4773071;30;20515;-79
2022/10/30 03:06:36;;;;;;;11.07;3.78;;;;;;;15.89;61.27;97037.50;4773048;30;20062;-79
2022/10/30 03:09:04;;;;;;;10.07;3.60;;;;;;;15.88;61.50;97043.78;4773152;30;20058;-78
2022/10/30 03:19:06;;;;;;;6.35;3.30;;;;;;;15.88;61.25;97034.06;5107315;24;20055;-78
2022/10/30 03:21:34;;;;;;;13.55;4.43;;;;;;;15.90;61.87;97039.94;4808633;29;20142;-78
2022/10/30 03:24:01;;;;;;;8.32;3.03;;;;;;;15.90;61.80;97034.66;4808587;29;20090;-78
2022/10/30 03:26:29;;;;;;;14.15;3.60;;;;;;;15.86;61.42;97034.25;4808481;29;20066;-78
2022/10/30 03:28:57;;;;;;;8.98;3.58;;;;;;;15.80;61.48;97027.19;4808630;29;20050;-78
2022/10/30 03:31:27;;;;;;;9.63;3.53;;;;;;;15.77;61.37;97032.06;4808417;29;20047;-78
2022/10/30 03:33:55;;;;;;;10.73;4.15;;;;;;;15.73;61.80;97029.00;4808343;29;20502;-78
2022/10/30 03:36:25;;;;;;;12.38;3.28;;;;;;;15.69;61.63;97024.34;4808573;29;20520;-78
2022/10/30 03:38:53;;;;;;;14.60;4.82;;;;;;;15.66;61.69;97022.94;4808005;29;20050;-78
2022/10/30 03:41:23;;;;;;;14.40;4.70;;;;;;;15.64;61.72;97019.69;4808306;29;20059;-78
2022/10/30 03:43:52;;;;;;;7.90;3.97;;;;;;;15.61;61.74;97018.28;4808284;29;20089;-78
2022/10/30 03:46:23;;;;;;;10.05;3.50;;;;;;;15.57;61.60;97016.25;4808059;29;20540;-78
2022/10/30 03:48:53;;;;;;;12.07;3.35;;;;;;;15.55;61.68;97019.09;4808253;29;20133;-78
2022/10/30 03:51:23;;;;;;;10.82;3.45;;;;;;;15.54;61.66;97017.44;4808156;29;20065;-78
2022/10/30 03:53:53;;;;;;;6.25;3.10;;;;;;;15.53;61.83;97009.78;4807550;29;20054;-78
2022/10/30 03:56:22;;;;;;;12.55;3.28;;;;;;;15.52;61.68;97018.69;4808185;29;20447;-78
2022/10/30 03:58:51;;;;;;;11.80;3.50;;;;;;;15.52;61.78;97016.03;4807671;29;20123;-78
2022/10/30 04:04:41;;;;;;;13.63;3.30;;;;;;;15.54;61.61;97020.09;5038518;24;20410;-80
2022/10/30 04:07:09;;;;;;;10.35;3.22;;;;;;;15.55;61.74;97021.72;4807660;29;20062;-80
2022/10/30 04:09:38;;;;;;;8.88;3.45;;;;;;;15.58;62.10;97018.66;4807929;29;20051;-80
2022/10/30 04:12:06;;;;;;;12.18;4.38;;;;;;;15.59;61.54;97025.56;4807150;29;20051;-78
2022/10/30 04:14:34;;;;;;;6.28;3.70;;;;;;;15.55;61.46;97019.09;4807502;29;20051;-78
2022/10/30 04:17:04;;;;;;;9.30;3.97;;;;;;;15.54;61.93;97025.34;4807075;29;20049;-78
2022/10/30 04:19:33;;;;;;;7.25;3.58;;;;;;;15.54;62.40;97025.34;4806907;29;20588;-78
2022/10/30 04:22:01;;;;;;;13.30;4.43;;;;;;;15.55;62.18;97029.59;4807014;29;20491;-78
2022/10/30 04:24:29;;;;;;;9.48;4.68;;;;;;;15.55;61.97;97029.59;4806939;29;20082;-78
2022/10/30 04:26:58;;;;;;;10.05;4.03;;;;;;;15.50;61.80;97032.00;4807046;29;20055;-78
2022/10/30 04:29:26;;;;;;;9.70;5.35;;;;;;;15.46;62.06;97041.34;4807134;29;20083;-78
2022/10/30 04:31:54;;;;;;;10.15;4.82;;;;;;;15.48;62.15;97044.59;4807087;29;20141;-78
2022/10/30 04:34:22;;;;;;;12.73;4.60;;;;;;;15.47;61.57;97042.94;4807246;29;20116;-78
2022/10/30 04:36:50;;;;;;;12.23;4.22;;;;;;;15.44;61.69;97043.34;4806814;29;20109;-78
2022/10/30 04:39:18;;;;;;;10.70;4.07;;;;;;;15.43;61.93;97052.25;4806588;29;20569;-78
2022/10/30 04:41:46;;;;;;;16.42;4.03;;;;;;;15.41;62.32;97054.25;4806778;29;20089;-78
2022/10/30 04:44:15;;;;;;;13.82;3.70;;;;;;;15.42;62.40;97050.63;4806513;29;20145;-78
2022/10/30 04:46:43;;;;;;;9.68;4.30;;;;;;;15.37;62.09;97047.78;4814612;29;20142;-78
2022/10/30 04:49:11;;;;;;;10.85;4.50;;;;;;;15.35;62.44;97044.53;4815705;29;20050;-78
2022/10/30 04:51:39;;;;;;;8.73;4.35;;;;;;;15.32;62.62;97047.59;4809786;29;20087;-79
2022/10/30 04:54:07;;;;;;;11.57;4.15;;;;;;;15.25;63.45;97043.13;4809926;29;20055;-78
2022/10/30 04:56:35;;;;;;;9.13;4.88;;;;;;;15.26;63.93;97041.28;4809315;29;20530;-78
2022/10/30 04:59:04;;;;;;;11.98;5.38;;;;;;;15.28;64.14;97041.09;4806431;29;20570;-78
2022/10/30 05:01:35;;;;;;;12.20;5.15;;;;;;;15.27;64.70;97037.69;4807100;29;20146;-80
2022/10/30 05:04:05;;;;;;;15.93;5.55;;;;;;;15.24;65.11;97031.00;4807237;29;20051;-80
2022/10/30 05:06:35;;;;;;;23.00;5.50;;;;;;;15.21;65.12;97028.75;4806992;29;20142;-80
2022/10/30 05:09:05;;;;;;;16.50;5.78;;;;;;;15.18;65.23;97023.91;4806772;29;20058;-80
2022/10/30 05:17:45;;;;;;;12.13;4.93;;;;;;;15.06;65.70;97032.59;4750373;30;20542;-78
2022/10/30 05:20:13;;;;;;;13.02;4.32;;;;;;;15.07;65.58;97040.28;4752303;30;20052;-78
2022/10/30 05:22:45;;;;;;;13.38;4.65;;;;;;;15.07;65.23;97036.84;4752607;30;20063;-78
2022/10/30 05:25:14;;;;;;;9.30;4.47;;;;;;;15.07;65.31;97031.59;4752425;30;20269;-78
2022/10/30 05:27:42;;;;;;;13.02;4.20;;;;;;;15.07;65.61;97042.91;4752675;30;20056;-78
2022/10/30 05:30:10;;;;;;;13.50;4.53;;;;;;;15.08;65.54;97043.72;4752050;30;20052;-78
2022/10/30 05:32:37;;;;;;;9.98;4.97;;;;;;;15.10;65.55;97039.88;4752702;30;20068;-78
2022/10/30 05:35:07;;;;;;;14.45;5.82;;;;;;;15.09;64.92;97040.88;4752339;30;20090;-78
2022/10/30 05:37:35;;;;;;;11.93;4.57;;;;;;;15.06;64.17;97045.72;4752310;30;20067;-78
2022/10/30 05:40:02;;;;;;;11.02;4.00;;;;;;;14.99;64.04;97053.59;4751933;30;20052;-78
2022/10/30 05:42:30;;;;;;;10.70;4.32;;;;;;;14.96;64.54;97046.91;4752472;30;20067;-78
2022/10/30 05:44:58;;;;;;;11.52;4.20;;;;;;;14.98;64.20;97049.34;4752069;30;20066;-78
2022/10/30 05:47:28;;;;;;;10.13;4.60;;;;;;;14.96;64.12;97046.13;4752764;30;20478;-80
2022/10/30 05:49:56;;;;;;;10.48;3.88;;;;;;;14.98;63.91;97049.34;4752760;30;20086;-80
2022/10/30 05:52:25;;;;;;;11.80;4.68;;;;;;;14.98;64.32;97049.34;4752570;30;20056;-81
2022/10/30 05:54:53;;;;;;;11.75;4.43;;;;;;;14.95;64.19;97050.53;4752615;30;20056;-78
2022/10/30 05:57:21;;;;;;;9.30;3.92;;;;;;;14.91;64.49;97048.50;4752380;30;20060;-78
2022/10/30 05:59:49;;;;;;;6.20;3.97;;;;;;;14.84;64.87;97045.88;4752417;30;20135;-78
2022/10/30 06:02:17;;;;;;;10.60;3.38;;;;;;;14.79;64.82;97043.84;4752584;30;20090;-78
2022/10/30 06:04:45;;;;;;;8.52;3.63;;;;;;;14.75;64.89;97050.47;4752489;30;20049;-78
2022/10/30 06:07:13;;;;;;;12.38;4.22;;;;;;;14.73;65.11;97044.63;4752427;30;20148;-78
2022/10/30 06:09:42;;;;;;;9.60;4.25;;;;;;;14.74;65.23;97048.88;4754871;30;20066;-80
2022/10/30 06:12:10;;;;;;;9.90;4.05;;;;;;;14.74;65.15;97048.06;4752149;30;20540;-80
2022/10/30 06:14:38;;;;;;;12.05;4.22;;;;;;;14.74;65.31;97053.31;4752479;30;20147;-80
2022/10/30 06:17:06;;;;;;;15.88;4.70;;;;;;;14.74;65.26;97045.44;4752330;30;20135;-80
2022/10/30 06:19:34;;;;;;;10.63;4.13;;;;;;;14.75;65.40;97039.97;4752373;30;20607;-81
2022/10/30 06:22:02;;;;;;;9.40;4.60;;;;;;;14.79;65.54;97046.47;4752329;30;20134;-78
2022/10/30 06:24:30;;;;;;;10.20;4.18;;;;;;;14.84;65.51;97040.63;4752154;30;20056;-78
2022/10/30 06:26:59;;;;;;;11.98;4.93;;;;;;;14.91;65.27;97048.50;4752413;30;20063;-78
2022/10/30 06:29:27;;;;;;;7.93;3.92;;;;;;;14.89;65.22;97045.28;4756201;30;20060;-78
2022/10/30 06:31:55;;;;;;;11.35;4.63;;;;;;;14.88;65.26;97044.47;4755448;30;20087;-78
2022/10/30 06:34:26;;;;;;;13.07;5.15;;;;;;;14.89;65.03;97051.34;4755650;30;20147;-78
2022/10/30 06:36:54;;;;;;;14.77;4.32;;;;;;;14.89;65.00;97053.97;4756074;30;20083;-78
2022/10/30 06:39:22;;;;;;;13.70;4.93;;;;;;;14.88;65.00;97054.16;4755556;30;20052;-78
2022/10/30 06:41:52;;;;;;;8.32;4.72;;;;;;;14.89;65.29;97061.03;4755496;30;20060;-78
2022/10/30 06:44:21;;;;;;;10.27;4.18;;;;;;;14.89;64.84;97053.97;4755800;30;20067;-78
2022/10/30 06:46:52;;;;;;;11.30;3.80;;;;;;;14.93;65.35;97049.94;4755519;30;20068;-78
2022/10/30 06:49:21;;;;;;;12.45;4.55;;;;;;;15.01;66.03;97059.47;4755377;30;20504;-78
2022/10/30 06:51:50;;;;;;;9.48;4.05;;;;;;;15.10;65.81;97060.88;4755114;30;20146;-80
2022/10/30 06:54:18;;;;;;;8.13;4.03;;;;;;;15.17;66.10;97053.81;4755502;30;20060;-78
2022/10/30 06:56:50;;;;;;;8.73;4.10;;;;;;;15.21;65.94;97059.50;4755416;30;20095;-78
2022/10/30 06:59:18;;;;;;;8.57;3.80;;;;;;;15.24;65.36;97064.38;4755212;30;20060;-78
2022/10/30 07:01:47;;;;;;;8.50;4.72;;;;;;;15.30;65.26;97068.00;4755322;30;20056;-78
2022/10/30 07:04:15;;;;;;;12.93;4.85;;;;;;;15.35;64.40;97066.41;4755507;30;20428;-78
2022/10/30 07:06:44;;;;;;;8.00;4.15;;;;;;;15.42;64.52;97074.28;4754858;30;20060;-78
2022/10/30 07:09:13;;;;;;;13.85;4.80;;;;;;;15.48;63.85;97076.13;4755014;30;20512;-79
2022/10/30 07:11:44;;;;;;;9.63;4.95;;;;;;;15.49;63.44;97077.72;4755031;30;20076;-79
2022/10/30 07:14:13;;;;;;;14.77;4.18;;;;;;;15.51;63.61;97073.09;4754984;30;20060;-79
2022/10/30 07:16:42;;;;;;;6.53;3.67;;;;;;;15.55;63.32;97081.38;4754795;30;20056;-79
2022/10/30 07:19:13;;;;;;;9.85;4.57;;;;;;;15.55;63.02;97076.94;4755051;30;20052;-80
2022/10/30 07:21:42;;;;;;;16.83;4.13;;;;;;;15.53;62.76;97081.59;4754617;30;20059;-79
2022/10/30 07:24:13;;;;;;;8.48;3.85;;;;;;;15.52;62.69;97076.50;4754998;30;20060;-79
2022/10/30 07:26:42;;;;;;;9.93;3.75;;;;;;;15.52;62.99;97076.50;4754833;30;20110;-79
2022/10/30 07:29:14;;;;;;;9.88;3.40;;;;;;;15.59;62.76;97066.81;4755144;30;20056;-79
2022/10/30 07:31:44;;;;;;;11.13;3.40;;;;;;;15.69;62.65;97072.47;4754597;30;20143;-79
2022/10/30 07:34:30;;;;;;;10.05;4.78;;;;;;;15.76;61.86;97073.31;4759379;30;20143;-80
2022/10/30 07:37:00;;;;;;;11.07;5.00;;;;;;;15.83;61.75;97078.56;4757702;30;20074;-79
2022/10/30 07:39:31;;;;;;;10.43;3.58;;;;;;;15.86;61.75;97067.66;4753079;30;20056;-79
2022/10/30 07:42:00;;;;;;;10.80;3.88;;;;;;;15.97;61.70;97068.88;4754433;30;20060;-79
2022/10/30 07:44:29;;;;;;;11.88;4.07;;;;;;;16.08;61.45;97070.06;4754924;30;20113;-79
2022/10/30 07:46:58;;;;;;;9.23;4.05;;;;;;;16.20;61.04;97073.66;4754468;30;20082;-79
2022/10/30 07:49:28;;;;;;;9.45;3.75;;;;;;;16.34;60.75;97071.84;4754193;30;20052;-79
2022/10/30 07:51:58;;;;;;;7.30;3.25;;;;;;;16.51;61.27;97069.53;4754582;30;20056;-79
2022/10/30 07:54:28;;;;;;;13.98;4.18;;;;;;;16.67;60.39;97072.53;4754645;30;20052;-79
2022/10/30 07:56:57;;;;;;;10.00;4.10;;;;;;;16.84;59.88;97080.81;4754684;30;20060;-79
2022/10/30 07:59:29;;;;;;;10.32;3.88;;;;;;;17.02;59.47;97066.13;4754282;30;20064;-79
2022/10/30 08:01:59;;;;;;;9.25;3.42;;;;;;;17.23;60.20;97076.34;4754104;30;20310;-79
2022/10/30 08:04:30;;;;;;;11.50;4.20;;;;;;;17.46;60.21;97078.41;4754303;30;20490;-79
2022/10/30 08:07:00;;;;;;;9.60;3.90;;;;;;;17.69;58.85;97077.84;4754358;30;20060;-79
2022/10/30 08:09:31;;;;;;;7.10;3.78;;;;;;;17.92;58.84;97082.53;4754278;30;20064;-78
2022/10/30 08:12:00;;;;;;;8.98;4.03;;;;;;;18.17;59.05;97079.09;4754199;30;20068;-79
2022/10/30 08:14:29;;;;;;;13.82;3.85;;;;;;;18.42;57.60;97081.66;4754224;30;20083;-79
2022/10/30 08:16:57;;;;;;;12.00;3.50;;;;;;;18.70;57.05;97080.34;4753974;30;20511;-79
2022/10/30 08:19:27;;;;;;;8.20;3.78;;;;;;;18.98;56.27;97076.38;4754084;30;20060;-79
2022/10/30 08:42:10;;;;;;;9.70;3.03;;;;;;;21.59;49.00;97072.31;5415066;24;20376;-79
2022/10/30 08:44:38;;;;;;;7.15;3.10;;;;;;;21.89;48.44;97079.16;4789407;29;20051;-79
2022/10/30 08:47:06;;;;;;;11.63;3.35;;;;;;;22.18;48.26;97071.88;4789200;30;20053;-80
2022/10/30 08:49:34;;;;;;;10.38;3.65;;;;;;;22.45;46.87;97073.06;4789312;30;20065;-80
2022/10/30 08:52:02;;;;;;;7.90;3.25;;;;;;;22.75;46.42;97083.28;4788978;29;20139;-79
2022/10/30 08:54:30;;;;;;;11.90;3.40;;;;;;;23.01;45.83;97071.91;4789045;29;20055;-80
2022/10/30 08:56:58;;;;;;;9.10;3.40;;;;;;;23.33;45.56;97068.50;4789371;30;20067;-79
2022/10/30 08:59:28;;;;;;;12.07;3.83;;;;;;;23.68;44.42;97067.22;4788877;30;20059;-80
2022/10/30 09:01:56;;;;;;;6.82;3.58;;;;;;;24.05;44.20;97069.91;4788773;30;20059;-80
2022/10/30 09:04:24;;;;;;;8.05;3.65;;;;;;;24.45;43.43;97062.41;4788968;30;20482;-80
2022/10/30 09:06:52;;;;;;;8.68;4.10;;;;;;;24.88;42.63;97063.94;4789327;30;20067;-80
2022/10/30 09:09:20;;;;;;;13.15;4.93;;;;;;;25.49;41.76;97060.59;4788631;30;20067;-80
2022/10/30 09:12:00;;;;;;;8.93;4.40;;;;;;;25.94;40.57;97062.75;4788867;30;20518;-80
2022/10/30 09:36:07;;;;;;;7.90;4.80;;;;;;;32.76;28.45;97070.69;5688175;24;21215;-80
2022/10/30 09:38:34;;;;;;;10.90;4.78;;;;;;;33.57;27.91;97072.03;4806079;29;20110;-80
2022/10/30 09:41:21;;;;;;;9.45;4.18;;;;;;;33.91;26.04;97067.69;4805445;29;20514;-80
2022/10/30 09:44:04;;;;;;;11.68;4.00;;;;;;;33.41;27.03;97068.22;4805623;29;20054;-80
2022/10/30 09:46:52;;;;;;;10.68;4.22;;;;;;;33.06;28.48;97068.19;4805519;29;20050;-79
2022/10/30 09:49:39;;;;;;;10.90;3.95;;;;;;;33.75;26.91;97069.34;4805411;29;20111;-80
2022/10/30 09:52:21;;;;;;;6.97;3.20;;;;;;;33.94;25.77;97069.78;4806087;29;20065;-80
2022/10/30 09:55:03;;;;;;;7.85;3.13;;;;;;;33.25;26.54;97065.19;4806645;29;20054;-79
2022/10/30 09:57:34;;;;;;;;;;;;;;;32.87;29.36;97062.28;4807303;29;20059;-78
2022/10/30 10:00:06;;;;;;;10.20;3.53;;;;;;;32.95;28.22;97072.28;4806215;29;19929;-79
2022/10/30 10:02:36;;;;;;;9.88;3.85;;;;;;;32.78;28.64;97065.75;4805600;29;20494;-80
2022/10/30 10:05:13;;;;;;;10.15;3.92;;;;;;;32.32;27.97;97056.22;4805927;29;20059;-81
2022/10/30 10:07:47;;;;;;;8.35;3.83;;;;;;;31.96;28.34;97059.81;4805512;29;20058;-80
2022/10/30 10:10:20;;;;;;;11.05;4.00;;;;;;;31.85;28.95;97053.09;4805427;29;20066;-80
2022/10/30 10:12:51;;;;;;;10.77;3.75;;;;;;;31.94;29.44;97056.63;4805930;29;20058;-80
2022/10/30 10:15:37;;;;;;;12.05;4.10;;;;;;;32.06;29.04;97063.41;4805416;29;20514;-80
2022/10/30 10:18:12;;;;;;;12.30;4.47;;;;;;;32.28;29.00;97054.47;4805789;29;20571;-80
2022/10/30 10:20:43;;;;;;;10.93;4.32;;;;;;;33.11;27.80;97049.13;4808096;29;20062;-80
2022/10/30 10:23:18;;;;;;;8.57;3.28;;;;;;;35.07;26.27;97060.34;4808793;29;20050;-80
2022/10/30 10:25:53;;;;;;;12.52;4.80;;;;;;;37.15;23.16;97056.47;4807535;29;20054;-80
2022/10/30 10:28:42;;;;;;;10.60;3.72;;;;;;;38.93;22.04;97062.25;4807934;29;20070;-81
2022/10/30 10:31:23;;;;;;;9.63;3.65;;;;;;;40.24;19.36;97060.91;4808101;29;20065;-80
2022/10/30 10:34:01;;;;;;;9.77;3.78;;;;;;;41.27;18.00;97058.94;4807604;29;20055;-81
2022/10/30 10:36:39;;;;;;;13.60;4.18;;;;;;;42.03;16.72;97052.34;4807371;29;20071;-81
2022/10/30 10:39:24;;;;;;;7.57;3.60;;;;;;;42.68;16.18;97058.34;4806912;29;20059;-81
2022/10/30 10:42:01;;;;;;;8.18;3.20;;;;;;;43.29;15.40;97051.25;4806823;29;20059;-81
2022/10/30 10:44:40;;;;;;;12.98;3.08;;;;;;;43.84;14.77;97058.47;4807025;29;20062;-81
2022/10/30 10:47:25;;;;;;;10.88;3.17;;;;;;;44.31;14.20;97053.06;4807252;29;20047;-80
2022/10/30 10:50:06;;;;;;;12.75;2.75;;;;;;;44.27;13.42;97052.25;4807534;29;20065;-81
2022/10/30 10:52:40;;;;;;;11.05;3.00;;;;;;;43.69;14.17;97040.41;4806557;29;20062;-81
2022/10/30 10:55:16;;;;;;;8.85;3.17;;;;;;;43.70;14.53;97045.50;4806847;29;20062;-81
2022/10/30 10:57:45;;;;;;;6.57;2.60;;;;;;;44.00;13.83;97039.66;4806602;29;20071;-81
2022/10/30 11:00:16;;;;;;;10.27;3.13;;;;;;;43.61;14.13;97039.59;4806471;29;20062;-81
2022/10/30 11:02:50;;;;;;;9.82;2.53;;;;;;;43.54;13.66;97034.09;4806289;29;20498;-81
2022/10/30 11:05:25;;;;;;;7.82;2.72;;;;;;;44.53;11.95;97038.13;4806809;29;20062;-81
2022/10/30 11:07:58;;;;;;;5.40;1.85;;;;;;;45.53;10.50;97031.50;4806242;29;20055;-81
2022/10/30 11:10:27;;;;;;;5.80;2.25;;;;;;;46.04;10.19;97023.72;4807112;29;20468;-81
2022/10/30 11:12:55;;;;;;;7.13;2.10;;;;;;;46.06;10.58;97029.63;4806414;29;20054;-81
2022/10/30 11:15:33;;;;;;;6.97;2.70;;;;;;;45.99;10.43;97024.13;4808818;29;20058;-81
2022/10/30 11:18:04;;;;;;;9.02;2.20;;;;;;;46.29;10.81;97025.47;4810278;29;20063;-81
2022/10/30 11:20:39;;;;;;;10.07;2.28;;;;;;;46.13;10.58;97018.53;4810609;29;20062;-81
2022/10/30 11:23:32;;;;;;;6.82;1.98;;;;;;;45.91;11.73;97020.63;4809654;29;20057;-81
2022/10/30 11:26:02;;;;;;;9.63;2.22;;;;;;;46.02;10.86;97012.31;4810590;29;20058;-81
2022/10/30 11:28:46;;;;;;;5.35;2.28;;;;;;;46.31;10.15;97012.06;4809958;29;20426;-81
2022/10/30 11:31:18;;;;;;;9.73;2.55;;;;;;;47.14;9.57;97007.25;4810226;29;20055;-81
2022/10/30 11:33:46;;;;;;;5.85;2.15;;;;;;;47.90;8.63;97014.53;4810475;29;20415;-81
2022/10/30 11:36:16;;;;;;;4.13;1.70;;;;;;;48.19;8.39;97012.81;4810204;29;20050;-81
2022/10/30 11:38:44;;;;;;;5.10;1.95;;;;;;;48.72;8.60;97015.88;4810543;29;20059;-81
2022/10/30 11:41:14;;;;;;;7.68;2.15;;;;;;;48.90;7.99;97015.53;4810152;29;20066;-81
2022/10/30 11:43:43;;;;;;;5.93;2.03;;;;;;;49.01;7.90;97016.13;4810842;29;20054;-81
2022/10/30 11:46:16;;;;;;;4.30;1.73;;;;;;;49.31;7.46;97014.28;4810368;29;20063;-81
2022/10/30 11:48:44;;;;;;;3.90;1.70;;;;;;;49.70;7.43;97004.34;4810185;29;20058;-82
2022/10/30 11:51:13;;;;;;;5.70;1.13;;;;;;;49.73;7.70;97002.69;4811074;29;20266;-81
2022/10/30 11:53:47;;;;;;;4.03;1.95;;;;;;;49.66;6.50;97004.41;4810295;29;20059;-81
2022/10/30 11:56:19;;;;;;;2.15;0.93;;;;;;;49.96;6.68;96996.19;4811203;29;20062;-81
2022/10/30 11:58:49;;;;;;;2.75;0.85;;;;;;;50.22;5.96;96997.16;4810660;29;20441;-81
2022/10/30 12:01:21;;;;;;;2.53;1.20;;;;;;;50.34;5.69;96998.41;4811146;29;20437;-81
2022/10/30 12:03:50;;;;;;;2.80;1.05;;;;;;;50.26;6.15;96995.84;4810740;29;20082;-81
2022/10/30 12:06:20;;;;;;;2.95;1.25;;;;;;;49.94;6.16;96987.53;4810721;29;20069;-81
2022/10/30 12:08:59;;;;;;;8.48;1.05;;;;;;;49.12;6.83;96987.41;4810254;29;20059;-81
2022/10/30 12:11:33;;;;;;;3.75;0.85;;;;;;;47.08;7.99;96983.25;4811617;29;20498;-81
2022/10/30 12:14:02;;;;;;;4.93;0.75;;;;;;;45.11;9.27;96972.66;4811900;29;20061;-81
2022/10/30 12:16:30;;;;;;;1.70;0.88;;;;;;;43.36;10.38;96974.41;4810754;29;20054;-81
2022/10/30 12:19:03;;;;;;;2.55;0.90;;;;;;;41.99;10.92;96967.38;4809955;29;20059;-81
2022/10/30 12:21:37;;;;;;;3.63;1.00;;;;;;;40.87;11.11;96970.09;4810706;29;20137;-81
2022/10/30 12:24:12;;;;;;;6.20;1.02;;;;;;;39.88;12.10;96959.22;4810051;29;20054;-81
2022/10/30 12:26:45;;;;;;;4.32;1.00;;;;;;;38.98;12.97;96965.72;4808276;29;20068;-81
2022/10/30 12:29:16;;;;;;;4.90;1.52;;;;;;;38.22;13.36;96959.75;4807639;29;20062;-81
2022/10/30 12:31:50;;;;;;;4.90;1.35;;;;;;;37.53;14.13;96959.97;4809094;29;20092;-80
2022/10/30 12:34:29;;;;;;;3.47;0.70;;;;;;;36.92;14.30;96956.38;4808841;29;20067;-81
2022/10/30 12:37:03;;;;;;;4.05;0.85;;;;;;;36.44;14.62;96957.25;4808577;29;20051;-81
2022/10/30 12:39:45;;;;;;;2.85;0.80;;;;;;;35.96;14.01;96948.75;4808618;29;20096;-81
2022/10/30 12:42:16;;;;;;;2.40;0.80;;;;;;;35.46;14.71;96953.28;4808937;29;20050;-81
2022/10/30 12:44:48;;;;;;;2.63;0.88;;;;;;;35.02;15.36;96954.81;4809090;29;20064;-81